createdAt,value
2018-08-25T00:01:35.854Z,6.80
2018-08-25T00:04:08.171Z,5.60
2018-08-25T00:06:40.789Z,4.70
2018-08-25T00:09:13.603Z,4.20
2018-08-25T00:11:46.203Z,3.33
2018-08-25T00:14:18.665Z,7.43
2018-08-25T00:16:51.126Z,4.40
2018-08-25T00:19:23.236Z,5.60
2018-08-25T00:21:55.680Z,4.83
2018-08-25T00:24:27.839Z,3.77
2018-08-25T00:27:00.403Z,6.67
2018-08-25T00:29:32.578Z,4.10
2018-08-25T00:32:04.903Z,6.23
2018-08-25T00:34:37.379Z,5.63
2018-08-25T00:37:09.934Z,3.77
2018-08-25T00:39:42.891Z,4.63
2018-08-25T00:42:15.033Z,6.10
2018-08-25T00:44:48.848Z,4.77
2018-08-25T00:47:21.191Z,4.23
2018-08-25T00:49:53.376Z,5.20
2018-08-25T00:52:25.237Z,3.93
2018-08-25T00:54:57.536Z,3.03
2018-08-25T00:57:30.114Z,6.40
2018-08-25T01:00:01.989Z,10.30
2018-08-25T01:02:33.774Z,5.37
2018-08-25T01:05:06.012Z,3.77
2018-08-25T01:07:38.474Z,3.80
2018-08-25T01:10:10.252Z,5.27
2018-08-25T01:12:42.931Z,5.93
2018-08-25T01:15:15.141Z,5.30
2018-08-25T01:17:47.470Z,3.73
2018-08-25T01:20:19.872Z,6.97
2018-08-25T01:22:52.361Z,10.43
2018-08-25T01:25:25.084Z,7.20
2018-08-25T01:27:57.412Z,4.90
2018-08-25T01:30:29.724Z,6.27
2018-08-25T01:33:02.292Z,5.23
2018-08-25T01:35:34.698Z,6.23
2018-08-25T01:38:06.979Z,7.23
2018-08-25T01:40:39.839Z,6.30
2018-08-25T01:43:12.536Z,5.57
2018-08-25T01:45:45.655Z,7.63
2018-08-25T01:48:17.953Z,5.60
2018-08-25T01:50:50.004Z,7.70
2018-08-25T01:53:22.580Z,4.53
2018-08-25T01:55:54.432Z,4.33
2018-08-25T01:58:26.252Z,4.33
2018-08-25T02:00:59.845Z,6.50
2018-08-25T02:03:32.588Z,5.70
2018-08-25T02:06:04.456Z,6.37
2018-08-25T02:08:36.357Z,6.40
2018-08-25T02:11:08.335Z,7.70
2018-08-25T02:13:40.229Z,9.30
2018-08-25T02:16:12.626Z,7.07
2018-08-25T02:18:45.099Z,4.90
2018-08-25T02:21:17.640Z,5.20
2018-08-25T02:23:49.632Z,9.83
2018-08-25T02:26:22.104Z,6.93
2018-08-25T02:28:54.765Z,6.20
2018-08-25T02:31:26.989Z,7.67
2018-08-25T02:33:58.913Z,4.87
2018-08-25T02:36:31.409Z,8.40
2018-08-25T02:39:04.884Z,6.90
2018-08-25T02:41:37.873Z,5.50
2018-08-25T02:44:10.393Z,10.13
2018-08-25T02:46:43.063Z,10.30
2018-08-25T02:49:15.003Z,5.90
2018-08-25T02:51:47.574Z,6.83
2018-08-25T02:54:20.473Z,4.37
2018-08-25T02:56:52.627Z,6.70
2018-08-25T02:59:26.274Z,13.63
2018-08-25T03:01:58.972Z,5.37
2018-08-25T03:04:32.150Z,10.93
2018-08-25T03:07:04.018Z,7.17
2018-08-25T03:09:36.093Z,9.67
2018-08-25T03:12:08.610Z,5.53
2018-08-25T03:14:40.929Z,6.30
2018-08-25T03:17:13.440Z,11.30
2018-08-25T03:19:45.842Z,7.07
2018-08-25T03:22:18.015Z,9.93
2018-08-25T03:24:50.113Z,9.77
2018-08-25T03:27:21.935Z,8.30
2018-08-25T03:29:54.495Z,6.90
2018-08-25T03:32:26.419Z,7.63
2018-08-25T03:34:58.369Z,6.70
2018-08-25T03:37:31.032Z,9.13
2018-08-25T03:40:03.954Z,5.50
2018-08-25T03:42:36.561Z,5.13
2018-08-25T03:45:08.916Z,5.90
2018-08-25T03:47:41.680Z,5.47
2018-08-25T03:50:13.704Z,5.53
2018-08-25T03:52:45.769Z,10.57
2018-08-25T03:55:18.446Z,7.23
2018-08-25T03:57:51.077Z,7.10
2018-08-25T04:00:23.268Z,7.70
2018-08-25T04:02:55.126Z,4.93
2018-08-25T04:05:27.139Z,10.40
2018-08-25T04:07:59.234Z,6.70
2018-08-25T04:10:31.001Z,8.63
2018-08-25T04:13:03.683Z,6.13
2018-08-25T04:15:35.547Z,9.70
2018-08-25T04:18:07.979Z,6.47
2018-08-25T04:20:40.129Z,8.10
2018-08-25T04:23:12.623Z,8.03
2018-08-25T04:25:44.504Z,6.30
2018-08-25T04:28:16.361Z,6.20
2018-08-25T04:30:49.772Z,6.30
2018-08-25T04:33:22.151Z,6.83
2018-08-25T04:35:54.567Z,4.90
2018-08-25T04:38:27.014Z,7.90
2018-08-25T04:40:59.608Z,5.60
2018-08-25T04:43:32.009Z,9.97
2018-08-25T04:46:04.372Z,7.17
2018-08-25T04:48:36.841Z,5.00
2018-08-25T04:51:09.322Z,7.47
2018-08-25T04:53:43.209Z,5.87
2018-08-25T04:56:15.308Z,5.67
2018-08-25T04:58:47.460Z,7.83
2018-08-25T05:01:19.624Z,8.97
2018-08-25T05:03:51.803Z,7.13
2018-08-25T05:06:24.583Z,5.30
2018-08-25T05:08:56.666Z,4.33
2018-08-25T05:11:29.168Z,6.50
2018-08-25T05:14:01.674Z,5.93
2018-08-25T05:16:33.903Z,6.17
2018-08-25T05:19:06.311Z,5.07
2018-08-25T05:21:38.602Z,6.53
2018-08-25T05:24:10.968Z,6.03
2018-08-25T05:26:43.112Z,7.20
2018-08-25T05:29:15.542Z,8.03
2018-08-25T05:31:47.838Z,9.50
2018-08-25T05:34:20.061Z,5.50
2018-08-25T05:36:52.747Z,8.53
2018-08-25T05:39:25.320Z,8.00
2018-08-25T05:41:59.209Z,10.03
2018-08-25T05:44:31.482Z,7.43
2018-08-25T05:47:03.788Z,9.33
2018-08-25T05:49:35.798Z,17.07
2018-08-25T05:52:08.022Z,11.93
2018-08-25T05:54:40.340Z,8.63
2018-08-25T05:57:12.700Z,7.97
2018-08-25T05:59:45.095Z,6.67
2018-08-25T06:02:17.257Z,6.90
2018-08-25T06:04:49.600Z,6.70
2018-08-25T06:07:21.807Z,13.67
2018-08-25T06:09:53.955Z,6.50
2018-08-25T06:12:26.741Z,6.40
2018-08-25T06:14:59.333Z,6.20
2018-08-25T06:17:31.551Z,6.70
2018-08-25T06:20:03.876Z,8.00
2018-08-25T06:22:36.254Z,10.83
2018-08-25T06:25:09.250Z,9.03
2018-08-25T06:27:41.532Z,11.43
2018-08-25T06:30:14.050Z,7.87
2018-08-25T06:32:46.443Z,12.17
2018-08-25T06:35:19.082Z,6.30
2018-08-25T06:37:51.307Z,8.50
2018-08-25T06:40:23.488Z,7.03
2018-08-25T06:42:55.688Z,6.40
2018-08-25T06:45:28.200Z,7.97
2018-08-25T06:48:00.640Z,6.13
2018-08-25T06:50:32.733Z,9.00
2018-08-25T06:53:04.909Z,7.87
2018-08-25T06:55:37.030Z,9.87
2018-08-25T06:58:09.481Z,12.90
2018-08-25T07:00:41.791Z,8.67
2018-08-25T07:03:14.787Z,6.07
2018-08-25T07:05:47.011Z,9.20
2018-08-25T07:08:20.039Z,8.73
2018-08-25T07:10:52.390Z,11.20
2018-08-25T07:13:24.939Z,13.20
2018-08-25T07:15:57.264Z,7.73
2018-08-25T07:18:29.396Z,10.53
2018-08-25T07:21:01.621Z,16.00
2018-08-25T07:23:34.207Z,9.73
2018-08-25T07:26:06.429Z,7.40
2018-08-25T07:28:39.159Z,9.23
2018-08-25T07:31:11.621Z,6.40
2018-08-25T07:33:43.853Z,8.23
2018-08-25T07:36:16.164Z,10.57
2018-08-25T07:38:48.468Z,10.70
2018-08-25T07:41:20.922Z,6.60
2018-08-25T07:43:53.394Z,9.63
2018-08-25T07:46:25.752Z,9.77
2018-08-25T07:48:58.135Z,8.60
2018-08-25T07:51:30.675Z,12.80
2018-08-25T07:54:02.875Z,8.20
2018-08-25T07:56:35.089Z,10.13
2018-08-25T07:59:08.288Z,11.03
2018-08-25T08:01:40.360Z,12.50
2018-08-25T08:04:12.634Z,10.50
2018-08-25T08:06:45.358Z,12.33
2018-08-25T08:09:18.331Z,11.50
2018-08-25T08:11:50.701Z,9.80
2018-08-25T08:14:24.824Z,9.67
2018-08-25T08:16:57.212Z,8.50
2018-08-25T08:19:29.663Z,11.63
2018-08-25T08:22:03.099Z,11.17
2018-08-25T08:24:36.280Z,12.40
2018-08-25T08:27:08.944Z,10.53
2018-08-25T08:29:41.242Z,13.60
2018-08-25T08:32:13.530Z,11.77
2018-08-25T08:34:45.812Z,16.50
2018-08-25T08:37:18.181Z,9.97
2018-08-25T08:39:50.428Z,16.40
2018-08-25T08:42:22.683Z,12.20
2018-08-25T08:44:55.269Z,11.00
2018-08-25T08:47:27.985Z,10.93
2018-08-25T08:50:00.496Z,10.23
2018-08-25T08:52:32.855Z,16.93
2018-08-25T08:55:05.119Z,11.77
2018-08-25T08:57:38.697Z,8.73
2018-08-25T09:00:10.983Z,11.20
2018-08-25T09:02:43.220Z,14.43
2018-08-25T09:05:15.755Z,10.70
2018-08-25T09:07:48.229Z,12.97
2018-08-25T09:10:20.728Z,9.80
2018-08-25T09:12:53.393Z,17.90
2018-08-25T09:15:25.939Z,14.30
2018-08-25T09:17:58.391Z,19.37
2018-08-25T09:20:30.520Z,17.97
2018-08-25T09:23:03.092Z,19.93
2018-08-25T09:25:35.899Z,21.40
2018-08-25T09:28:08.202Z,18.90
2018-08-25T09:30:40.875Z,22.77
2018-08-25T09:33:13.204Z,20.63
2018-08-25T09:35:45.557Z,20.50
2018-08-25T09:38:18.064Z,24.33
2018-08-25T09:40:50.652Z,20.73
2018-08-25T09:43:22.708Z,29.97
2018-08-25T09:45:54.929Z,26.17
2018-08-25T09:48:27.308Z,27.10
2018-08-25T09:50:59.575Z,26.93
2018-08-25T09:53:31.993Z,25.27
2018-08-25T09:56:04.944Z,26.37
2018-08-25T09:58:37.298Z,28.37
2018-08-25T10:01:14.075Z,24.80
2018-08-25T10:03:46.343Z,26.37
2018-08-25T10:06:19.132Z,26.20
2018-08-25T10:08:51.688Z,26.73
2018-08-25T10:11:24.296Z,31.20
2018-08-25T10:13:57.036Z,23.53
2018-08-25T10:16:30.139Z,24.53
2018-08-25T10:19:03.111Z,23.50
2018-08-25T10:21:35.359Z,24.83
2018-08-25T10:24:07.651Z,21.23
2018-08-25T10:26:39.762Z,22.27
2018-08-25T10:29:12.754Z,23.00
2018-08-25T10:31:45.112Z,28.00
2018-08-25T10:34:18.107Z,18.40
2018-08-25T10:36:50.428Z,25.80
2018-08-25T10:39:22.870Z,24.47
2018-08-25T10:41:55.387Z,20.40
2018-08-25T10:44:27.588Z,22.87
2018-08-25T10:46:59.871Z,23.10
2018-08-25T10:49:32.185Z,24.93
2018-08-25T10:52:04.424Z,20.10
2018-08-25T10:54:36.936Z,21.70
2018-08-25T10:57:09.276Z,27.07
2018-08-25T10:59:41.825Z,20.50
2018-08-25T11:02:26.030Z,22.10
2018-08-25T11:04:58.427Z,31.43
2018-08-25T11:07:30.735Z,16.30
2018-08-25T11:10:02.926Z,19.67
2018-08-25T11:12:35.320Z,22.90
2018-08-25T11:15:07.739Z,23.10
2018-08-25T11:17:40.292Z,16.73
2018-08-25T11:20:12.472Z,17.80
2018-08-25T11:22:45.240Z,19.60
2018-08-25T11:25:17.739Z,20.17
2018-08-25T11:27:49.789Z,17.33
2018-08-25T11:30:22.553Z,15.73
2018-08-25T11:32:55.013Z,15.47
2018-08-25T11:35:27.568Z,18.53
2018-08-25T11:37:59.842Z,16.00
2018-08-25T11:40:32.081Z,16.63
2018-08-25T11:43:06.212Z,23.60
2018-08-25T11:45:38.503Z,18.53
2018-08-25T11:48:12.469Z,18.30
2018-08-25T11:50:44.451Z,17.20
2018-08-25T11:53:16.876Z,23.33
2018-08-25T11:55:48.889Z,21.37
2018-08-25T11:58:21.115Z,20.87
2018-08-25T12:00:53.608Z,21.60
2018-08-25T12:03:25.872Z,21.07
2018-08-25T12:05:58.268Z,22.00
2018-08-25T12:08:30.669Z,31.20
2018-08-25T12:11:03.032Z,26.37
2018-08-25T12:13:35.251Z,25.90
2018-08-25T12:16:07.262Z,26.63
2018-08-25T12:18:39.689Z,24.07
2018-08-25T12:21:11.996Z,27.10
2018-08-25T12:23:44.173Z,25.13
2018-08-25T12:26:16.850Z,22.97
2018-08-25T12:28:49.358Z,22.57
2018-08-25T12:31:22.248Z,28.63
2018-08-25T12:33:54.361Z,24.70
2018-08-25T12:36:27.508Z,25.20
2018-08-25T12:39:00.018Z,24.73
2018-08-25T12:41:32.207Z,26.33
2018-08-25T12:44:04.585Z,28.37
2018-08-25T12:46:36.952Z,28.97
2018-08-25T12:49:09.551Z,26.27
2018-08-25T12:51:41.887Z,32.80
2018-08-25T12:54:14.285Z,26.48
2018-08-25T12:56:46.671Z,26.57
2018-08-25T12:59:19.120Z,25.90
2018-08-25T13:01:52.018Z,33.65
2018-08-25T13:04:24.411Z,27.35
2018-08-25T13:06:56.942Z,28.27
2018-08-25T13:09:29.340Z,29.82
2018-08-25T13:12:01.886Z,31.23
2018-08-25T13:14:34.537Z,29.07
2018-08-25T13:17:07.878Z,31.95
2018-08-25T13:19:40.318Z,32.10
2018-08-25T13:22:12.668Z,27.03
2018-08-25T13:24:44.800Z,27.35
2018-08-25T13:27:16.988Z,23.50
2018-08-25T13:29:49.289Z,27.15
2018-08-25T13:32:21.435Z,31.70
2018-08-25T13:34:53.694Z,27.97
2018-08-25T13:37:26.006Z,30.52
2018-08-25T13:39:58.257Z,30.30
2018-08-25T13:42:30.877Z,26.47
2018-08-25T13:45:03.476Z,35.87
2018-08-25T13:47:35.615Z,28.63
2018-08-25T13:50:08.128Z,29.60
2018-08-25T13:52:40.871Z,33.23
2018-08-25T13:55:13.149Z,29.27
2018-08-25T13:57:45.721Z,28.67
2018-08-25T14:00:18.108Z,27.37
2018-08-25T14:02:50.622Z,29.93
2018-08-25T14:05:22.840Z,26.77
2018-08-25T14:07:55.030Z,32.43
2018-08-25T14:10:27.800Z,29.33
2018-08-25T14:13:00.341Z,26.30
2018-08-25T14:15:33.140Z,32.33
2018-08-25T14:18:05.633Z,26.33
2018-08-25T14:20:37.982Z,27.40
2018-08-25T14:23:11.006Z,30.13
2018-08-25T14:25:43.163Z,29.00
2018-08-25T14:28:15.449Z,26.23
2018-08-25T14:30:47.682Z,20.90
2018-08-25T14:33:19.923Z,27.13
2018-08-25T14:35:52.513Z,27.70
2018-08-25T14:38:24.894Z,26.40
2018-08-25T14:40:57.216Z,20.60
2018-08-25T14:43:29.615Z,21.60
2018-08-25T14:46:02.053Z,25.10
2018-08-25T14:48:34.554Z,23.30
2018-08-25T14:51:07.152Z,20.50
2018-08-25T14:53:39.461Z,25.33
2018-08-25T14:56:11.900Z,26.43
2018-08-25T14:58:44.218Z,22.00
2018-08-25T15:01:16.453Z,21.40
2018-08-25T15:03:48.616Z,23.00
2018-08-25T15:06:21.199Z,29.07
2018-08-25T15:08:53.635Z,18.83
2018-08-25T15:11:26.176Z,23.73
2018-08-25T15:13:58.314Z,25.93
2018-08-25T15:16:30.763Z,22.40
2018-08-25T15:19:03.464Z,21.47
2018-08-25T15:21:35.542Z,24.40
2018-08-25T15:24:07.984Z,23.30
2018-08-25T15:26:40.231Z,22.10
2018-08-25T15:29:12.875Z,26.00
2018-08-25T15:31:45.319Z,28.77
2018-08-25T15:34:17.756Z,24.67
2018-08-25T15:36:50.140Z,26.23
2018-08-25T15:39:22.538Z,29.33
2018-08-25T15:41:55.187Z,33.57
2018-08-25T15:44:27.271Z,29.93
2018-08-25T15:46:59.721Z,27.93
2018-08-25T15:49:31.897Z,30.40
2018-08-25T15:52:04.304Z,30.10
2018-08-25T15:54:36.708Z,32.47
2018-08-25T15:57:09.430Z,39.73
2018-08-25T15:59:42.084Z,32.10
2018-08-25T16:02:14.164Z,31.03
2018-08-25T16:04:46.376Z,35.80
2018-08-25T16:07:18.649Z,31.07
2018-08-25T16:09:51.249Z,33.37
2018-08-25T16:12:23.453Z,36.03
2018-08-25T16:14:56.047Z,33.67
2018-08-25T16:17:28.430Z,30.70
2018-08-25T16:20:00.963Z,32.27
2018-08-25T16:22:33.186Z,36.23
2018-08-25T16:25:05.528Z,31.30
2018-08-25T16:27:37.756Z,29.27
2018-08-25T16:30:10.152Z,30.13
2018-08-25T16:32:42.306Z,30.73
2018-08-25T16:35:14.760Z,28.83
2018-08-25T16:37:53.013Z,29.50
2018-08-25T16:40:25.551Z,29.97
2018-08-25T16:42:57.677Z,29.20
2018-08-25T16:45:30.007Z,28.87
2018-08-25T16:48:02.130Z,30.13
2018-08-25T16:50:34.398Z,31.20
2018-08-25T16:53:06.736Z,30.73
2018-08-25T16:55:38.963Z,36.10
2018-08-25T16:58:11.280Z,30.33
2018-08-25T17:00:43.675Z,32.50
2018-08-25T17:03:15.795Z,29.77
2018-08-25T17:05:48.511Z,33.00
2018-08-25T17:08:20.810Z,28.47
2018-08-25T17:10:52.809Z,25.97
2018-08-25T17:13:25.174Z,27.30
2018-08-25T17:15:57.720Z,28.00
2018-08-25T17:18:30.575Z,27.10
2018-08-25T17:21:02.842Z,26.93
2018-08-25T17:23:35.272Z,28.77
2018-08-25T17:26:07.731Z,28.03
2018-08-25T17:28:40.066Z,29.03
2018-08-25T17:31:12.146Z,29.30
2018-08-25T17:33:44.456Z,27.63
2018-08-25T17:36:16.895Z,30.90
2018-08-25T17:38:49.287Z,26.80
2018-08-25T17:41:22.256Z,26.40
2018-08-25T17:43:54.734Z,23.60
2018-08-25T17:46:27.117Z,25.13
2018-08-25T17:48:59.722Z,29.40
2018-08-25T17:51:32.327Z,26.33
2018-08-25T17:54:04.568Z,29.47
2018-08-25T17:56:37.246Z,23.80
2018-08-25T17:59:09.602Z,24.80
2018-08-25T18:01:42.362Z,25.73
2018-08-25T18:04:14.845Z,24.77
2018-08-25T18:06:47.153Z,30.70
2018-08-25T18:09:19.725Z,25.57
2018-08-25T18:11:52.083Z,24.00
2018-08-25T18:14:24.444Z,25.77
2018-08-25T18:16:56.926Z,24.30
2018-08-25T18:19:29.323Z,27.60
2018-08-25T18:22:01.629Z,26.30
2018-08-25T18:24:33.684Z,26.27
2018-08-25T18:27:05.696Z,29.53
2018-08-25T18:29:38.140Z,26.90
2018-08-25T18:32:10.092Z,29.10
2018-08-25T18:34:42.008Z,31.40
2018-08-25T18:37:13.995Z,26.77
2018-08-25T18:39:45.799Z,25.47
2018-08-25T18:42:18.381Z,27.50
2018-08-25T18:44:50.673Z,26.07
2018-08-25T18:47:23.328Z,28.43
2018-08-25T18:49:56.365Z,26.10
2018-08-25T18:52:29.358Z,28.10
2018-08-25T18:55:02.877Z,25.60
2018-08-25T18:57:34.636Z,27.60
2018-08-25T19:00:07.272Z,25.43
2018-08-25T19:02:39.061Z,28.67
2018-08-25T19:05:11.406Z,29.30
2018-08-25T19:07:43.561Z,27.67
2018-08-25T19:10:15.885Z,27.10
2018-08-25T19:12:48.084Z,29.43
2018-08-25T19:15:21.168Z,26.23
2018-08-25T19:17:56.220Z,26.20
2018-08-25T19:20:28.484Z,26.30
2018-08-25T19:23:00.268Z,26.67
2018-08-25T19:25:32.669Z,26.57
2018-08-25T19:28:04.915Z,28.10
2018-08-25T19:30:37.255Z,27.67
2018-08-25T19:33:09.635Z,24.37
2018-08-25T19:35:42.040Z,24.47
2018-08-25T19:38:14.559Z,25.20
2018-08-25T19:40:47.412Z,26.40
2018-08-25T19:43:20.011Z,24.27
2018-08-25T19:45:52.538Z,29.27
2018-08-25T19:48:25.716Z,27.27
2018-08-25T19:50:58.907Z,24.93
2018-08-25T19:53:32.251Z,28.93
2018-08-25T19:56:05.641Z,26.23
2018-08-25T19:58:38.691Z,26.90
2018-08-25T20:01:11.270Z,26.10
2018-08-25T20:03:44.015Z,25.90
2018-08-25T20:06:16.507Z,27.13
2018-08-25T20:08:51.772Z,27.57
2018-08-25T20:11:25.052Z,27.43
2018-08-25T20:13:58.260Z,28.30
2018-08-25T20:16:31.395Z,28.10
2018-08-25T20:19:05.572Z,27.10
2018-08-25T20:21:41.062Z,27.33
2018-08-25T20:24:14.581Z,26.30
2018-08-25T20:26:47.410Z,28.50
2018-08-25T20:29:19.683Z,29.27
2018-08-25T20:31:53.030Z,30.50
2018-08-25T20:34:26.595Z,28.20
2018-08-25T20:36:59.611Z,28.93
2018-08-25T20:39:32.818Z,27.60
2018-08-25T20:42:06.324Z,25.87
2018-08-25T20:44:39.951Z,29.23
2018-08-25T20:47:12.854Z,28.70
2018-08-25T20:49:45.677Z,26.93
2018-08-25T20:52:18.175Z,27.70
2018-08-25T20:54:50.855Z,30.70
2018-08-25T20:57:23.712Z,29.03
2018-08-25T20:59:56.907Z,28.13
2018-08-25T21:02:29.763Z,29.33
2018-08-25T21:05:03.095Z,30.73
2018-08-25T21:07:36.098Z,28.63
2018-08-25T21:10:10.088Z,29.73
2018-08-25T21:12:42.880Z,30.60
2018-08-25T21:15:15.558Z,28.60
2018-08-25T21:17:49.036Z,29.80
2018-08-25T21:20:22.169Z,27.70
2018-08-25T21:22:55.639Z,29.63
2018-08-25T21:25:28.971Z,30.23
2018-08-25T21:28:02.291Z,28.03
2018-08-25T21:30:34.671Z,30.90
2018-08-25T21:33:06.637Z,31.43
2018-08-25T21:35:38.628Z,30.20
2018-08-25T21:38:10.888Z,30.03
2018-08-25T21:40:43.318Z,29.97
2018-08-25T21:43:15.745Z,28.87
2018-08-25T21:45:48.143Z,30.07
2018-08-25T21:48:20.505Z,29.20
2018-08-25T21:50:52.957Z,29.00
2018-08-25T21:53:24.933Z,29.17
2018-08-25T21:55:57.036Z,28.33
2018-08-25T21:58:28.941Z,29.47
2018-08-25T22:01:01.484Z,28.47
2018-08-25T22:03:34.112Z,30.43
2018-08-25T22:06:06.250Z,28.20
2018-08-25T22:08:38.809Z,29.90
2018-08-25T22:11:11.141Z,26.80
2018-08-25T22:13:43.041Z,27.10
2018-08-25T22:16:15.290Z,26.37
2018-08-25T22:18:47.159Z,28.27
2018-08-25T22:21:19.457Z,26.57
2018-08-25T22:23:51.887Z,25.90
2018-08-25T22:26:24.711Z,27.90
2018-08-25T22:28:57.286Z,26.87
2018-08-25T22:31:29.501Z,26.90
2018-08-25T22:34:01.691Z,28.67
2018-08-25T22:36:33.438Z,27.60
2018-08-25T22:39:08.054Z,26.73
2018-08-25T22:41:40.121Z,24.20
2018-08-25T22:44:12.768Z,26.43
2018-08-25T22:46:46.249Z,26.83
2018-08-25T22:49:18.710Z,25.30
2018-08-25T22:51:50.980Z,26.37
2018-08-25T22:54:24.044Z,25.17
2018-08-25T22:56:56.521Z,25.47
2018-08-25T22:59:28.567Z,25.80
2018-08-25T23:02:00.576Z,25.43
2018-08-25T23:04:32.592Z,25.97
2018-08-25T23:07:04.673Z,25.70
2018-08-25T23:09:36.594Z,26.83
2018-08-25T23:12:08.982Z,26.00
2018-08-25T23:14:42.114Z,26.00
2018-08-25T23:17:14.521Z,24.90
2018-08-25T23:19:46.592Z,25.00
2018-08-25T23:22:18.472Z,25.07
2018-08-25T23:24:50.653Z,25.60
2018-08-25T23:27:22.652Z,24.67
2018-08-25T23:29:55.273Z,26.40
2018-08-25T23:32:27.963Z,24.57
2018-08-25T23:35:00.433Z,25.57
2018-08-25T23:37:32.963Z,23.17
2018-08-25T23:40:05.492Z,23.93
2018-08-25T23:42:37.418Z,25.07
2018-08-25T23:45:09.594Z,24.77
2018-08-25T23:47:41.554Z,23.40
2018-08-25T23:50:14.652Z,24.80
2018-08-25T23:52:47.256Z,23.73
2018-08-25T23:55:19.974Z,22.37
2018-08-25T23:57:52.532Z,25.63
